Time;durP1;ratioP1;P1;durP2;ratioP2;P2;SDS_P1;SDS_P2;PMS_P1;PMS_P2;Temp;Humidity;BMP_temperature;BMP_pressure;BME280_temperature;BME280_humidity;BME280_pressure;Samples;Min_cycle;Max_cycle;Signal;HPM_P1;HPM_P2
2023/01/01 00:00:45;;;;;;;;;;;16.50;53.90;;;;;;5043778;28;20028;-85
2023/01/01 00:03:11;;;;;;;;;;;16.50;54.20;;;;;;5038244;28;19984;-85
2023/01/01 00:05:37;;;;;;;;;;;16.60;54.20;;;;;;5033123;28;19944;-85
2023/01/01 00:08:03;;;;;;;;;;;16.60;53.90;;;;;;5035571;28;19952;-85
2023/01/01 00:10:28;;;;;;;;;;;16.60;54.10;;;;;;5052003;28;19913;-85
2023/01/01 00:12:57;;;;;;;;;;;16.60;53.80;;;;;;5046713;28;19913;-85
2023/01/01 00:15:23;;;;;;;;;;;16.60;53.50;;;;;;5047232;28;19913;-85
2023/01/01 00:17:49;;;;;;;;;;;16.60;54.10;;;;;;5051449;28;20015;-84
2023/01/01 00:20:14;;;;;;;;;;;16.50;54.40;;;;;;5066763;28;19919;-85
2023/01/01 00:22:40;;;;;;;;;;;16.50;54.30;;;;;;5050022;28;19913;-85
2023/01/01 00:25:05;;;;;;;;;;;16.50;54.00;;;;;;5043972;28;20375;-86
2023/01/01 00:27:31;;;;;;;;;;;16.50;54.20;;;;;;5039893;28;19915;-85
2023/01/01 00:29:56;;;;;;;;;;;16.40;54.60;;;;;;5036387;28;19920;-84
2023/01/01 00:32:22;;;;;;;;;;;16.50;53.80;;;;;;5035884;28;19917;-84
2023/01/01 00:34:47;;;;;;;;;;;16.40;54.30;;;;;;5034436;28;19909;-85
2023/01/01 00:37:14;;;;;;;;;;;16.40;54.60;;;;;;5037597;28;19917;-85
2023/01/01 00:39:39;;;;;;;;;;;16.40;54.60;;;;;;5044018;28;19919;-85
2023/01/01 00:42:05;;;;;;;;;;;16.40;54.60;;;;;;5049803;28;19921;-85
2023/01/01 00:44:30;;;;;;;;;;;16.40;54.00;;;;;;5031015;28;19913;-84
2023/01/01 00:46:56;;;;;;;;;;;16.40;54.20;;;;;;5038121;28;20367;-84
2023/01/01 00:49:21;;;;;;;;;;;16.40;53.70;;;;;;5050328;28;19983;-85
2023/01/01 00:51:47;;;;;;;;;;;16.50;53.40;;;;;;5032049;28;19936;-85
2023/01/01 00:54:12;;;;;;;;;;;16.50;52.90;;;;;;5060829;28;20022;-85
2023/01/01 00:56:38;;;;;;;;;;;16.50;53.30;;;;;;5036452;28;19966;-85
2023/01/01 00:59:03;;;;;;;;;;;16.40;53.70;;;;;;5046350;28;19924;-84
2023/01/01 01:01:28;;;;;;;;;;;16.50;53.20;;;;;;5038985;28;19929;-84
2023/01/01 01:03:54;;;;;;;;;;;16.40;53.10;;;;;;5054124;28;19920;-85
2023/01/01 01:06:20;;;;;;;;;;;16.30;53.40;;;;;;5047061;28;19921;-84
2023/01/01 01:08:46;;;;;;;;;;;16.30;53.40;;;;;;5062070;28;19924;-86
2023/01/01 01:11:18;;;;;;;;;;;16.40;53.50;;;;;;5038715;28;19921;-85
2023/01/01 01:13:45;;;;;;;;;;;16.30;53.40;;;;;;5036762;28;19913;-85
2023/01/01 01:16:12;;;;;;;;;;;16.30;53.10;;;;;;5026757;28;20321;-85
2023/01/01 01:18:41;;;;;;;;;;;16.30;53.10;;;;;;5024638;28;20047;-86
2023/01/01 01:21:07;;;;;;;;;;;16.20;53.50;;;;;;5053921;28;19913;-86
2023/01/01 01:23:33;;;;;;;;;;;16.10;53.30;;;;;;5041702;28;19935;-87
2023/01/01 01:26:07;;;;;;;;;;;16.20;53.10;;;;;;5053551;28;19938;-85
2023/01/01 01:28:32;;;;;;;;;;;16.10;53.40;;;;;;5051139;28;19984;-86
2023/01/01 01:30:58;;;;;;;;;;;16.10;53.00;;;;;;5029098;28;20051;-85
2023/01/01 01:33:24;;;;;;;;;;;16.00;53.30;;;;;;5061535;28;20366;-86
2023/01/01 01:35:50;;;;;;;;;;;16.00;53.50;;;;;;5051029;28;20004;-85
2023/01/01 01:38:16;;;;;;;;;;;15.90;53.60;;;;;;5034049;28;19937;-86
2023/01/01 01:40:42;;;;;;;;;;;15.80;53.60;;;;;;5059613;28;20385;-86
2023/01/01 01:43:18;;;;;;;;;;;15.90;53.60;;;;;;5031231;28;20358;-86
2023/01/01 01:45:44;;;;;;;;;;;15.80;54.30;;;;;;5021394;28;19925;-85
2023/01/01 01:48:10;;;;;;;;;;;15.80;53.40;;;;;;5021379;28;19940;-86
2023/01/01 01:50:37;;;;;;;;;;;15.90;52.80;;;;;;5020962;28;19924;-86
2023/01/01 01:53:11;;;;;;;;;;;15.90;53.20;;;;;;5026413;28;19910;-86
2023/01/01 01:55:45;;;;;;;;;;;15.80;53.10;;;;;;5027196;28;19913;-86
2023/01/01 01:58:12;;;;;;;;;;;15.80;53.40;;;;;;5026077;28;19916;-87
2023/01/01 02:00:37;;;;;;;;;;;15.70;53.00;;;;;;5026537;28;19967;-87
2023/01/01 02:03:06;;;;;;;;;;;15.60;53.50;;;;;;5030927;28;19939;-86
2023/01/01 02:05:33;;;;;;;;;;;15.70;52.60;;;;;;5045418;28;19934;-86
2023/01/01 02:07:58;;;;;;;;;;;15.70;52.20;;;;;;5028161;28;19914;-86
2023/01/01 02:10:25;;;;;;;;;;;15.70;52.60;;;;;;5053216;28;19908;-86
2023/01/01 02:12:50;;;;;;;;;;;15.70;52.60;;;;;;5033364;28;19913;-86
2023/01/01 02:15:16;;;;;;;;;;;15.60;52.70;;;;;;5026125;28;19974;-87
2023/01/01 02:17:50;;;;;;;;;;;15.60;52.40;;;;;;5037494;28;20443;-87
2023/01/01 02:20:15;;;;;;;;;;;15.70;52.00;;;;;;5048434;28;20370;-86
2023/01/01 02:22:59;;;;;;;;;;;15.70;52.30;;;;;;5039900;28;20055;-86
2023/01/01 02:25:40;;;;;;;;;;;15.60;51.90;;;;;;5028582;28;20347;-86
2023/01/01 02:28:14;;;;;;;;;;;15.60;52.40;;;;;;5036158;28;19928;-86
2023/01/01 02:30:41;;;;;;;;;;;15.60;52.50;;;;;;5026270;28;19921;-85
2023/01/01 02:33:11;;;;;;;;;;;15.60;51.80;;;;;;5034595;28;19924;-86
2023/01/01 02:35:41;;;;;;;;;;;15.60;51.40;;;;;;5038959;28;19924;-86
2023/01/01 02:38:06;;;;;;;;;;;15.60;51.30;;;;;;5034196;28;19921;-86
2023/01/01 02:40:33;;;;;;;;;;;15.60;52.20;;;;;;5036353;28;19912;-86
2023/01/01 02:42:58;;;;;;;;;;;15.50;52.40;;;;;;5034705;28;19982;-86
2023/01/01 02:45:24;;;;;;;;;;;15.50;52.30;;;;;;5041045;28;20172;-87
2023/01/01 02:47:49;;;;;;;;;;;15.50;52.40;;;;;;5025190;28;19912;-86
2023/01/01 02:50:17;;;;;;;;;;;15.50;52.20;;;;;;5035547;28;19931;-87
2023/01/01 02:52:46;;;;;;;;;;;15.40;52.20;;;;;;5044155;28;19917;-86
2023/01/01 02:55:14;;;;;;;;;;;15.50;52.00;;;;;;5036486;28;19912;-87
2023/01/01 02:57:43;;;;;;;;;;;15.50;52.20;;;;;;5028374;28;19917;-86
2023/01/01 03:00:23;;;;;;;;;;;15.50;52.30;;;;;;5061574;28;19932;-86
2023/01/01 03:03:07;;;;;;;;;;;15.50;52.50;;;;;;5029008;28;19936;-86
2023/01/01 03:05:36;;;;;;;;;;;15.50;52.10;;;;;;5043709;28;19928;-86
2023/01/01 03:08:12;;;;;;;;;;;15.50;52.50;;;;;;5031450;28;19912;-86
2023/01/01 03:10:57;;;;;;;;;;;15.50;52.10;;;;;;5025110;28;20367;-87
2023/01/01 03:13:25;;;;;;;;;;;15.50;52.50;;;;;;5042197;28;20266;-87
2023/01/01 03:15:58;;;;;;;;;;;15.40;52.40;;;;;;5037949;28;19916;-86
2023/01/01 03:18:43;;;;;;;;;;;15.40;52.50;;;;;;5021873;28;19967;-85
2023/01/01 03:21:09;;;;;;;;;;;15.40;52.80;;;;;;5033303;28;19917;-86
2023/01/01 03:23:37;;;;;;;;;;;15.50;52.30;;;;;;5019925;28;19960;-85
2023/01/01 03:26:08;;;;;;;;;;;15.50;52.60;;;;;;5022157;28;20381;-86
2023/01/01 03:28:35;;;;;;;;;;;15.40;52.90;;;;;;5035064;28;19913;-86
2023/01/01 03:31:01;;;;;;;;;;;15.40;52.40;;;;;;5025642;28;20015;-86
2023/01/01 03:33:34;;;;;;;;;;;15.50;52.70;;;;;;5042935;28;19967;-85
2023/01/01 03:36:05;;;;;;;;;;;15.40;52.70;;;;;;5024664;28;20367;-86
2023/01/01 03:38:34;;;;;;;;;;;15.40;53.00;;;;;;5019768;28;19917;-86
2023/01/01 03:41:14;;;;;;;;;;;15.30;53.20;;;;;;5021296;28;19979;-86
2023/01/01 03:43:51;;;;;;;;;;;15.30;53.20;;;;;;5038064;28;19917;-85
2023/01/01 03:46:20;;;;;;;;;;;15.30;53.10;;;;;;5021275;28;20036;-86
2023/01/01 03:48:59;;;;;;;;;;;15.30;53.00;;;;;;5038518;28;19921;-86
2023/01/01 03:51:44;;;;;;;;;;;15.30;53.20;;;;;;5027508;28;20004;-86
2023/01/01 03:54:21;;;;;;;;;;;15.30;53.20;;;;;;5009578;28;19959;-86
2023/01/01 03:56:56;;;;;;;;;;;15.30;53.60;;;;;;5035179;28;19921;-85
2023/01/01 03:59:28;;;;;;;;;;;15.30;53.50;;;;;;5019474;28;21279;-86
2023/01/01 04:01:56;;;;;;;;;;;15.30;53.70;;;;;;5041124;28;20370;-86
2023/01/01 04:04:23;;;;;;;;;;;15.30;53.80;;;;;;5047155;28;19913;-86
2023/01/01 04:06:48;;;;;;;;;;;15.30;53.70;;;;;;5048487;28;19942;-86
2023/01/01 04:09:16;;;;;;;;;;;15.30;53.80;;;;;;5053822;28;19945;-87
2023/01/01 04:12:03;;;;;;;;;;;15.20;53.90;;;;;;5042944;28;19920;-86
2023/01/01 04:14:33;;;;;;;;;;;15.20;54.50;;;;;;5031638;28;19913;-86
2023/01/01 04:16:59;;;;;;;;;;;15.20;53.90;;;;;;5026582;28;20382;-86
2023/01/01 04:19:24;;;;;;;;;;;15.30;54.10;;;;;;5043693;28;19921;-88
2023/01/01 04:21:50;;;;;;;;;;;15.30;54.30;;;;;;5050464;28;19901;-86
2023/01/01 04:24:15;;;;;;;;;;;15.30;54.30;;;;;;5025564;28;19917;-86
2023/01/01 04:26:41;;;;;;;;;;;15.30;54.30;;;;;;5041242;28;19921;-86
2023/01/01 04:29:06;;;;;;;;;;;15.30;55.30;;;;;;5026524;28;19921;-86
2023/01/01 04:31:35;;;;;;;;;;;15.20;55.70;;;;;;5023983;28;19921;-87
2023/01/01 04:34:01;;;;;;;;;;;15.20;55.00;;;;;;5037276;28;20371;-86
2023/01/01 04:36:26;;;;;;;;;;;15.10;55.40;;;;;;5022519;28;20008;-85
2023/01/01 04:38:52;;;;;;;;;;;15.20;55.50;;;;;;5053314;28;20016;-87
2023/01/01 04:41:17;;;;;;;;;;;15.20;55.20;;;;;;5037521;28;20319;-86
2023/01/01 04:43:45;;;;;;;;;;;15.20;55.70;;;;;;5023210;28;19939;-85
2023/01/01 04:46:11;;;;;;;;;;;15.20;55.90;;;;;;5037716;28;19924;-86
2023/01/01 04:48:36;;;;;;;;;;;15.20;55.90;;;;;;5039334;28;19917;-86
2023/01/01 04:51:03;;;;;;;;;;;15.20;56.30;;;;;;5048206;28;19914;-85
2023/01/01 04:53:30;;;;;;;;;;;15.20;56.20;;;;;;5028641;28;19917;-86
2023/01/01 04:55:55;;;;;;;;;;;15.20;56.20;;;;;;5021584;28;19924;-86
2023/01/01 04:58:21;;;;;;;;;;;15.20;56.20;;;;;;5019082;28;20067;-85
2023/01/01 05:00:48;;;;;;;;;;;15.30;56.10;;;;;;5023794;28;20290;-85
2023/01/01 05:03:13;;;;;;;;;;;15.30;56.00;;;;;;5017612;28;20659;-85
2023/01/01 05:05:39;;;;;;;;;;;15.20;56.50;;;;;;5037249;28;20036;-86
2023/01/01 05:08:04;;;;;;;;;;;15.30;56.10;;;;;;5020249;28;19924;-86
2023/01/01 05:10:29;;;;;;;;;;;15.30;56.20;;;;;;5037152;28;19913;-85
2023/01/01 05:12:55;;;;;;;;;;;15.20;56.70;;;;;;5038108;28;19996;-85
2023/01/01 05:15:20;;;;;;;;;;;15.20;57.00;;;;;;5016094;28;19917;-85
2023/01/01 05:17:46;;;;;;;;;;;15.10;56.70;;;;;;5038033;28;19928;-85
2023/01/01 05:20:11;;;;;;;;;;;15.10;57.00;;;;;;5017606;28;19913;-85
2023/01/01 05:22:37;;;;;;;;;;;15.20;56.90;;;;;;5020015;28;19960;-86
2023/01/01 05:25:02;;;;;;;;;;;15.20;56.70;;;;;;5020993;28;19967;-85
2023/01/01 05:27:28;;;;;;;;;;;15.20;57.20;;;;;;5016842;28;19959;-85
2023/01/01 05:29:53;;;;;;;;;;;15.10;57.20;;;;;;5020805;28;19971;-85
2023/01/01 05:32:18;;;;;;;;;;;15.10;57.90;;;;;;5050890;28;19923;-85
2023/01/01 05:34:44;;;;;;;;;;;15.10;57.40;;;;;;5032788;28;19927;-87
2023/01/01 05:37:10;;;;;;;;;;;15.00;58.20;;;;;;5045303;28;20011;-85
2023/01/01 05:39:36;;;;;;;;;;;15.00;58.00;;;;;;5038254;28;19917;-85
2023/01/01 05:42:01;;;;;;;;;;;14.90;58.20;;;;;;5038166;28;19917;-85
2023/01/01 05:44:27;;;;;;;;;;;14.90;58.40;;;;;;5023146;28;19937;-85
2023/01/01 05:46:52;;;;;;;;;;;15.00;58.20;;;;;;5041315;28;19901;-84
2023/01/01 05:49:18;;;;;;;;;;;14.90;58.10;;;;;;5048869;28;19951;-85
2023/01/01 05:51:43;;;;;;;;;;;15.00;58.00;;;;;;5061677;28;19943;-85
2023/01/01 05:54:09;;;;;;;;;;;15.00;57.90;;;;;;5031821;28;19917;-86
2023/01/01 05:56:34;;;;;;;;;;;15.00;58.20;;;;;;5029446;28;19917;-85
2023/01/01 05:59:00;;;;;;;;;;;15.00;58.20;;;;;;5027137;28;20259;-85
2023/01/01 06:01:29;;;;;;;;;;;15.00;57.80;;;;;;5030746;28;20271;-86
2023/01/01 06:03:55;;;;;;;;;;;15.10;59.50;;;;;;5026067;28;19924;-85
2023/01/01 06:06:27;;;;;;;;;;;15.00;60.40;;;;;;5051799;28;19967;-85
2023/01/01 06:08:56;;;;;;;;;;;15.00;61.00;;;;;;5038801;28;19920;-85
2023/01/01 06:11:22;;;;;;;;;;;14.90;60.50;;;;;;5033399;28;20034;-86
2023/01/01 06:13:50;;;;;;;;;;;15.00;59.70;;;;;;5028001;28;19917;-86
2023/01/01 06:16:15;;;;;;;;;;;14.90;59.70;;;;;;5030035;28;20279;-85
2023/01/01 06:18:41;;;;;;;;;;;15.00;61.60;;;;;;5030366;28;19915;-85
2023/01/01 06:21:08;;;;;;;;;;;14.80;63.00;;;;;;5055955;28;20279;-86
2023/01/01 06:23:33;;;;;;;;;;;14.60;64.80;;;;;;5029313;28;19955;-85
2023/01/01 06:26:06;;;;;;;;;;;14.60;63.60;;;;;;5025128;28;19943;-87
2023/01/01 06:28:32;;;;;;;;;;;14.60;64.70;;;;;;5046459;28;19921;-86
2023/01/01 06:31:01;;;;;;;;;;;14.60;64.00;;;;;;5027806;28;19917;-85
2023/01/01 06:33:27;;;;;;;;;;;14.50;63.70;;;;;;5044099;28;20018;-84
2023/01/01 06:35:52;;;;;;;;;;;14.50;64.20;;;;;;5041604;28;19956;-85
2023/01/01 06:38:17;;;;;;;;;;;14.50;63.20;;;;;;5022487;28;19921;-86
2023/01/01 06:40:43;;;;;;;;;;;14.50;63.70;;;;;;5023480;28;19921;-85
2023/01/01 06:43:08;;;;;;;;;;;14.60;62.90;;;;;;5039998;28;19942;-87
2023/01/01 06:45:34;;;;;;;;;;;14.60;62.60;;;;;;5042148;28;19974;-85
2023/01/01 06:47:59;;;;;;;;;;;14.60;62.40;;;;;;5036851;28;19913;-85
2023/01/01 06:50:24;;;;;;;;;;;14.60;62.60;;;;;;5026137;28;21030;-85
2023/01/01 06:52:50;;;;;;;;;;;14.60;62.60;;;;;;5019752;28;20624;-85
2023/01/01 06:55:15;;;;;;;;;;;14.70;61.80;;;;;;5032216;28;19917;-85
2023/01/01 06:57:41;;;;;;;;;;;14.70;61.60;;;;;;5034865;28;19917;-85
2023/01/01 07:00:06;;;;;;;;;;;14.80;60.90;;;;;;5042808;28;19927;-85
2023/01/01 07:02:32;;;;;;;;;;;14.80;61.20;;;;;;5038060;28;19924;-85
2023/01/01 07:04:57;;;;;;;;;;;14.70;61.40;;;;;;5026422;28;19913;-85
2023/01/01 07:07:23;;;;;;;;;;;14.80;61.30;;;;;;5018736;28;20007;-85
2023/01/01 07:09:48;;;;;;;;;;;14.80;62.60;;;;;;5047030;28;19917;-85
2023/01/01 07:12:15;;;;;;;;;;;14.60;63.40;;;;;;5023132;28;19938;-85
2023/01/01 07:14:40;;;;;;;;;;;14.60;63.70;;;;;;5044199;28;19913;-85
2023/01/01 07:17:06;;;;;;;;;;;14.60;63.90;;;;;;5056121;28;19916;-86
2023/01/01 07:19:31;;;;;;;;;;;14.60;64.50;;;;;;5035535;28;19917;-85
2023/01/01 07:21:57;;;;;;;;;;;14.50;65.20;;;;;;5019006;28;20024;-85
2023/01/01 07:24:22;;;;;;;;;;;14.50;65.90;;;;;;5037801;28;19921;-86
2023/01/01 07:26:48;;;;;;;;;;;14.40;65.70;;;;;;5017724;28;19962;-86
2023/01/01 07:29:13;;;;;;;;;;;14.40;66.00;;;;;;5037568;28;19913;-84
2023/01/01 07:31:39;;;;;;;;;;;14.30;66.50;;;;;;5040135;28;20001;-85
2023/01/01 07:34:05;;;;;;;;;;;14.30;66.10;;;;;;5043921;28;20291;-85
2023/01/01 07:36:30;;;;;;;;;;;14.30;65.80;;;;;;5021167;28;19977;-84
2023/01/01 07:38:56;;;;;;;;;;;14.40;66.60;;;;;;5037829;28;19925;-84
2023/01/01 07:41:21;;;;;;;;;;;14.30;67.00;;;;;;5019060;28;20396;-85
2023/01/01 07:43:47;;;;;;;;;;;14.30;66.90;;;;;;5028768;28;19970;-84
2023/01/01 07:46:15;;;;;;;;;;;14.30;67.40;;;;;;5039702;28;20401;-84
2023/01/01 07:48:40;;;;;;;;;;;14.20;68.20;;;;;;5037981;28;20003;-85
2023/01/01 07:51:06;;;;;;;;;;;14.10;69.50;;;;;;5021795;28;19996;-84
2023/01/01 07:53:31;;;;;;;;;;;14.10;68.60;;;;;;5024590;28;19921;-85
2023/01/01 07:55:57;;;;;;;;;;;14.10;69.70;;;;;;5018200;28;19921;-85
2023/01/01 07:58:22;;;;;;;;;;;14.00;70.10;;;;;;5017605;28;19971;-85
2023/01/01 08:00:48;;;;;;;;;;;14.00;71.00;;;;;;5036487;28;19936;-84
2023/01/01 08:03:14;;;;;;;;;;;13.90;70.60;;;;;;5021540;28;19943;-85
2023/01/01 08:05:39;;;;;;;;;;;13.80;71.90;;;;;;5028526;28;20016;-85
2023/01/01 08:08:05;;;;;;;;;;;13.80;72.30;;;;;;5023958;28;19992;-85
2023/01/01 08:10:30;;;;;;;;;;;13.80;71.80;;;;;;5018009;28;19963;-84
2023/01/01 08:13:06;;;;;;;;;;;13.70;72.60;;;;;;5019371;28;19921;-85
2023/01/01 08:15:32;;;;;;;;;;;13.70;72.50;;;;;;5025637;28;19990;-85
2023/01/01 08:17:58;;;;;;;;;;;13.80;72.50;;;;;;5033705;28;20302;-86
2023/01/01 08:20:24;;;;;;;;;;;13.70;72.80;;;;;;5025514;28;19982;-85
2023/01/01 08:22:50;;;;;;;;;;;13.80;72.70;;;;;;5046996;28;19928;-85
2023/01/01 08:25:15;;;;;;;;;;;13.80;72.60;;;;;;5018798;28;20134;-85
2023/01/01 08:27:40;;;;;;;;;;;13.80;73.10;;;;;;5021401;28;20393;-86
2023/01/01 08:30:06;;;;;;;;;;;13.80;72.90;;;;;;5018868;28;19917;-86
2023/01/01 08:32:32;;;;;;;;;;;13.80;73.20;;;;;;5020120;28;19912;-84
2023/01/01 08:34:57;;;;;;;;;;;13.70;73.40;;;;;;5023261;28;19959;-87
2023/01/01 08:37:46;;;;;;;;;;;13.70;73.20;;;;;;5017291;28;19975;-86
2023/01/01 08:40:12;;;;;;;;;;;13.70;73.00;;;;;;5046052;28;19920;-85
2023/01/01 08:43:01;;;;;;;;;;;13.70;72.80;;;;;;5067138;28;19901;-87
2023/01/01 08:45:26;;;;;;;;;;;13.80;72.40;;;;;;5047073;28;19916;-85
2023/01/01 08:47:52;;;;;;;;;;;13.80;72.70;;;;;;5054425;28;19919;-84
2023/01/01 08:50:17;;;;;;;;;;;13.90;71.90;;;;;;5055230;28;19924;-84
2023/01/01 08:52:43;;;;;;;;;;;13.90;72.10;;;;;;5037057;28;19913;-85
2023/01/01 08:55:08;;;;;;;;;;;13.90;71.70;;;;;;5049855;28;19928;-84
2023/01/01 08:57:34;;;;;;;;;;;13.90;71.30;;;;;;5029806;28;19929;-84
2023/01/01 08:59:59;;;;;;;;;;;13.90;71.50;;;;;;5026581;28;19948;-86
2023/01/01 09:02:25;;;;;;;;;;;14.00;71.00;;;;;;5020117;28;19928;-85
2023/01/01 09:04:50;;;;;;;;;;;14.00;71.70;;;;;;5018385;28;19928;-86
2023/01/01 09:07:16;;;;;;;;;;;14.00;71.10;;;;;;5039321;28;19936;-87
2023/01/01 09:09:41;;;;;;;;;;;14.10;71.30;;;;;;5023063;28;19919;-86
2023/01/01 09:12:08;;;;;;;;;;;14.00;70.40;;;;;;5042280;28;20405;-86
2023/01/01 09:14:34;;;;;;;;;;;14.10;70.50;;;;;;5038857;28;20368;-86
2023/01/01 09:17:02;;;;;;;;;;;14.10;70.00;;;;;;5025638;28;20000;-86
2023/01/01 09:19:31;;;;;;;;;;;14.10;70.60;;;;;;5039405;28;19925;-86
2023/01/01 09:21:59;;;;;;;;;;;14.10;70.50;;;;;;5026757;28;19972;-86
2023/01/01 09:24:25;;;;;;;;;;;14.20;70.30;;;;;;5042143;28;20317;-87
2023/01/01 09:26:50;;;;;;;;;;;14.10;70.30;;;;;;5043584;28;19913;-86
2023/01/01 09:29:17;;;;;;;;;;;14.20;70.10;;;;;;5045758;28;19917;-86
2023/01/01 09:31:49;;;;;;;;;;;14.20;70.00;;;;;;5029168;28;20385;-86
2023/01/01 09:34:19;;;;;;;;;;;14.30;69.60;;;;;;5044310;28;19966;-87
2023/01/01 09:36:45;;;;;;;;;;;14.30;69.90;;;;;;5044143;28;19982;-85
2023/01/01 09:39:12;;;;;;;;;;;14.30;69.10;;;;;;5059896;28;19912;-87
2023/01/01 09:42:02;;;;;;;;;;;;;;;;;;;;;
2023/01/01 09:44:48;;;;;;;;;;;14.30;69.50;;;;;;5049844;28;20305;-86
2023/01/01 09:47:54;;;;;;;;;;;14.30;69.20;;;;;;5046561;28;19913;-85
2023/01/01 09:50:13;;;;;;;;;;;14.40;69.10;;;;;;5037644;28;20502;-86
2023/01/01 09:52:56;;;;;;;;;;;14.40;68.60;;;;;;5024006;28;20503;-88
2023/01/01 09:55:25;;;;;;;;;;;14.40;68.70;;;;;;5019549;28;19921;-86
2023/01/01 09:58:07;;;;;;;;;;;14.50;68.40;;;;;;5021134;28;19921;-86
2023/01/01 10:00:33;;;;;;;;;;;14.50;68.60;;;;;;5032310;28;19917;-85
2023/01/01 10:03:09;;;;;;;;;;;14.50;68.50;;;;;;5059075;28;19912;-85
2023/01/01 10:05:59;;;;;;;;;;;14.50;68.80;;;;;;5045424;28;19980;-86
2023/01/01 10:08:35;;;;;;;;;;;14.40;69.00;;;;;;5073823;28;20403;-86
2023/01/01 10:11:07;;;;;;;;;;;14.40;68.90;;;;;;5035684;28;19919;-85
2023/01/01 10:13:36;;;;;;;;;;;14.50;68.90;;;;;;5057455;28;19924;-86
2023/01/01 10:16:25;;;;;;;;;;;14.40;69.10;;;;;;5058409;28;19913;-85
2023/01/01 10:18:55;;;;;;;;;;;14.40;68.70;;;;;;5020649;28;19916;-86
2023/01/01 10:21:23;;;;;;;;;;;14.50;68.40;;;;;;5049782;28;19913;-87
2023/01/01 10:23:54;;;;;;;;;;;14.50;68.70;;;;;;5055211;28;19979;-88
2023/01/01 10:26:22;;;;;;;;;;;14.40;69.10;;;;;;5033765;28;20294;-86
2023/01/01 10:28:47;;;;;;;;;;;14.40;69.10;;;;;;5023980;28;19924;-87
2023/01/01 10:31:14;;;;;;;;;;;14.40;69.00;;;;;;5041026;28;19917;-87
2023/01/01 10:33:40;;;;;;;;;;;14.40;69.10;;;;;;5033924;28;20332;-87
2023/01/01 10:36:08;;;;;;;;;;;14.40;69.20;;;;;;5032055;28;20003;-85
2023/01/01 10:38:34;;;;;;;;;;;14.50;69.00;;;;;;5034214;28;19924;-86
2023/01/01 10:41:07;;;;;;;;;;;14.50;69.20;;;;;;5050059;28;19929;-85
2023/01/01 10:43:33;;;;;;;;;;;14.50;69.30;;;;;;5035858;28;19917;-86
2023/01/01 10:46:00;;;;;;;;;;;14.50;69.10;;;;;;5033594;28;19928;-87
2023/01/01 10:48:27;;;;;;;;;;;14.50;68.70;;;;;;5047799;28;19992;-88
2023/01/01 10:50:58;;;;;;;;;;;14.50;69.20;;;;;;5024755;28;20432;-88
2023/01/01 10:53:24;;;;;;;;;;;14.50;68.90;;;;;;5032487;28;20297;-88
2023/01/01 10:55:50;;;;;;;;;;;14.50;69.00;;;;;;5033520;28;19916;-86
2023/01/01 10:58:45;;;;;;;;;;;14.60;69.20;;;;;;5032351;28;20409;-87
2023/01/01 11:01:17;;;;;;;;;;;14.60;69.00;;;;;;5026488;28;19960;-89
2023/01/01 11:03:53;;;;;;;;;;;14.50;69.40;;;;;;5056283;28;19920;-87
2023/01/01 11:06:21;;;;;;;;;;;14.50;69.10;;;;;;5025542;28;19917;-87
2023/01/01 11:08:48;;;;;;;;;;;14.50;69.20;;;;;;5040378;28;19960;-86
2023/01/01 11:11:21;;;;;;;;;;;14.60;68.90;;;;;;5025306;28;20274;-87
2023/01/01 11:13:48;;;;;;;;;;;14.60;68.90;;;;;;5034233;28;20392;-87
2023/01/01 11:16:14;;;;;;;;;;;14.60;68.70;;;;;;5033688;28;19909;-88
2023/01/01 11:18:39;;;;;;;;;;;14.60;68.70;;;;;;5038646;28;19924;-87
2023/01/01 11:21:06;;;;;;;;;;;14.60;68.60;;;;;;5038793;28;19913;-86
2023/01/01 11:23:36;;;;;;;;;;;14.70;68.40;;;;;;5028020;28;20294;-86
2023/01/01 11:26:16;;;;;;;;;;;14.70;68.70;;;;;;5024874;28;19909;-87
2023/01/01 11:28:57;;;;;;;;;;;14.60;69.20;;;;;;5035066;28;19960;-89
2023/01/01 11:31:24;;;;;;;;;;;14.70;68.80;;;;;;5066769;28;19936;-90
2023/01/01 11:33:54;;;;;;;;;;;14.60;69.00;;;;;;5049250;28;19917;-89
2023/01/01 11:36:33;;;;;;;;;;;14.60;69.00;;;;;;5043578;28;19962;-86
2023/01/01 11:39:06;;;;;;;;;;;14.60;69.20;;;;;;5031604;28;20496;-89
2023/01/01 11:41:40;;;;;;;;;;;14.50;69.30;;;;;;5028213;28;19913;-87
2023/01/01 11:44:06;;;;;;;;;;;14.60;69.20;;;;;;5035264;28;20023;-85
2023/01/01 11:46:32;;;;;;;;;;;14.50;69.40;;;;;;5066176;28;19974;-86
2023/01/01 11:48:57;;;;;;;;;;;14.50;69.20;;;;;;5030419;28;19913;-85
2023/01/01 11:51:31;;;;;;;;;;;14.70;68.80;;;;;;5049291;28;19919;-85
2023/01/01 11:54:10;;;;;;;;;;;14.70;69.00;;;;;;5053274;28;19917;-85
2023/01/01 11:56:36;;;;;;;;;;;14.80;68.40;;;;;;5037115;28;19913;-88
2023/01/01 11:59:08;;;;;;;;;;;14.90;68.20;;;;;;5023622;28;19939;-86
2023/01/01 12:01:45;;;;;;;;;;;14.80;68.60;;;;;;5041337;28;19931;-87
2023/01/01 12:04:18;;;;;;;;;;;14.80;68.50;;;;;;5026341;28;19925;-86
2023/01/01 12:06:43;;;;;;;;;;;14.80;68.80;;;;;;5031588;28;20377;-86
2023/01/01 12:09:09;;;;;;;;;;;14.80;68.50;;;;;;5021937;28;19940;-86
2023/01/01 12:11:43;;;;;;;;;;;14.80;68.40;;;;;;5018794;28;19921;-87
2023/01/01 12:14:23;;;;;;;;;;;14.70;68.80;;;;;;5014941;28;20370;-86
2023/01/01 12:16:55;;;;;;;;;;;14.70;68.60;;;;;;5038140;28;19958;-86
2023/01/01 12:19:27;;;;;;;;;;;14.60;68.90;;;;;;5017955;28;19983;-87
2023/01/01 12:21:55;;;;;;;;;;;14.70;69.10;;;;;;5034475;28;20003;-86
2023/01/01 12:24:21;;;;;;;;;;;14.70;69.20;;;;;;5030243;28;20055;-87
2023/01/01 12:26:56;;;;;;;;;;;14.70;68.80;;;;;;5051389;28;19913;-86
2023/01/01 12:29:29;;;;;;;;;;;14.60;68.80;;;;;;5022015;28;20394;-88
2023/01/01 12:32:15;;;;;;;;;;;14.70;68.60;;;;;;5042375;28;19913;-87
2023/01/01 12:34:47;;;;;;;;;;;14.60;68.60;;;;;;5017412;28;19950;-86
2023/01/01 12:37:22;;;;;;;;;;;14.60;68.60;;;;;;5019058;28;19917;-86
2023/01/01 12:39:59;;;;;;;;;;;14.70;68.80;;;;;;5022659;28;19917;-86
2023/01/01 12:42:43;;;;;;;;;;;14.70;68.60;;;;;;5016822;28;20402;-86
2023/01/01 12:45:23;;;;;;;;;;;14.70;68.60;;;;;;5025891;28;19913;-86
2023/01/01 12:47:49;;;;;;;;;;;14.70;68.70;;;;;;5048501;28;20003;-85
2023/01/01 12:50:17;;;;;;;;;;;14.70;68.50;;;;;;5043412;28;20403;-85
2023/01/01 12:53:04;;;;;;;;;;;14.70;68.40;;;;;;5030736;28;19920;-85
2023/01/01 12:55:32;;;;;;;;;;;14.70;68.50;;;;;;5038752;28;20024;-87
2023/01/01 12:58:14;;;;;;;;;;;14.60;68.20;;;;;;5047480;28;19983;-87
2023/01/01 13:00:42;;;;;;;;;;;14.70;68.50;;;;;;5059409;28;19948;-85
2023/01/01 13:03:17;;;;;;;;;;;14.60;68.60;;;;;;5027740;28;19912;-86
2023/01/01 13:05:44;;;;;;;;;;;14.60;68.20;;;;;;5028411;28;19952;-84
2023/01/01 13:08:10;;;;;;;;;;;14.60;68.20;;;;;;5046989;28;19920;-85
2023/01/01 13:10:43;;;;;;;;;;;14.60;67.70;;;;;;5022506;28;19971;-86
2023/01/01 13:13:10;;;;;;;;;;;14.60;67.90;;;;;;5032315;28;20456;-85
2023/01/01 13:15:44;;;;;;;;;;;14.60;67.70;;;;;;5050508;28;19917;-85
2023/01/01 13:18:13;;;;;;;;;;;14.60;67.40;;;;;;5059096;28;19920;-85
2023/01/01 13:20:43;;;;;;;;;;;14.60;67.70;;;;;;5058206;28;19917;-84
2023/01/01 13:23:27;;;;;;;;;;;14.60;67.20;;;;;;5050660;28;19920;-85
2023/01/01 13:26:25;;;;;;;;;;;14.50;67.50;;;;;;5048217;28;20014;-85
2023/01/01 13:28:50;;;;;;;;;;;14.60;67.70;;;;;;5016462;28;19917;-84
2023/01/01 13:31:16;;;;;;;;;;;14.50;67.50;;;;;;5053020;28;20442;-85
2023/01/01 13:33:41;;;;;;;;;;;14.50;67.20;;;;;;5025902;28;20106;-83
2023/01/01 13:36:10;;;;;;;;;;;14.50;67.70;;;;;;5022615;28;19928;-85
2023/01/01 13:38:53;;;;;;;;;;;14.50;67.10;;;;;;5045054;28;19916;-85
2023/01/01 13:41:35;;;;;;;;;;;14.60;67.20;;;;;;5062508;28;19927;-88
2023/01/01 13:44:01;;;;;;;;;;;14.50;67.50;;;;;;5044876;28;19913;-90
2023/01/01 13:46:42;;;;;;;;;;;14.50;67.60;;;;;;5028650;28;20007;-87
2023/01/01 13:49:26;;;;;;;;;;;14.40;67.80;;;;;;5057420;28;19921;-86
2023/01/01 13:51:56;;;;;;;;;;;14.50;67.70;;;;;;5051612;28;20012;-87
2023/01/01 13:54:40;;;;;;;;;;;14.50;67.50;;;;;;5029057;28;19975;-85
2023/01/01 13:57:09;;;;;;;;;;;14.50;67.80;;;;;;5026602;28;19967;-86
2023/01/01 13:59:51;;;;;;;;;;;14.50;67.40;;;;;;5030378;28;19916;-84
2023/01/01 14:02:19;;;;;;;;;;;14.40;68.30;;;;;;5019290;28;19920;-84
2023/01/01 14:05:05;;;;;;;;;;;14.40;67.50;;;;;;5019558;28;19920;-87
2023/01/01 14:07:34;;;;;;;;;;;14.50;67.70;;;;;;5044134;28;19952;-87
2023/01/01 14:10:14;;;;;;;;;;;14.50;67.20;;;;;;5049619;28;19965;-85
2023/01/01 14:12:40;;;;;;;;;;;14.50;67.20;;;;;;5021170;28;19913;-87
2023/01/01 14:15:21;;;;;;;;;;;14.40;67.10;;;;;;5023356;28;19928;-85
2023/01/01 14:17:47;;;;;;;;;;;14.40;67.30;;;;;;5038254;28;20016;-85
2023/01/01 14:20:16;;;;;;;;;;;14.40;66.80;;;;;;5058627;28;19928;-89
2023/01/01 14:22:42;;;;;;;;;;;14.30;67.10;;;;;;5033412;28;21223;-85
2023/01/01 14:25:12;;;;;;;;;;;14.30;67.40;;;;;;5045408;28;20293;-86
2023/01/01 14:27:38;;;;;;;;;;;14.30;67.50;;;;;;5029716;28;19962;-86
2023/01/01 14:30:04;;;;;;;;;;;14.30;66.70;;;;;;5027510;28;19913;-86